createdAt,value
2017-11-03T00:00:36.035Z,95.10
2017-11-03T00:03:03.265Z,95.30
2017-11-03T00:05:29.838Z,95.30
2017-11-03T00:07:56.268Z,95.10
2017-11-03T00:10:22.734Z,95.10
2017-11-03T00:12:49.178Z,95.20
2017-11-03T00:15:15.598Z,95.30
2017-11-03T00:17:42.046Z,95.50
2017-11-03T00:20:08.530Z,95.70
2017-11-03T00:22:34.963Z,95.90
2017-11-03T00:25:02.172Z,95.90
2017-11-03T00:27:28.636Z,95.90
2017-11-03T00:29:55.103Z,95.90
2017-11-03T00:32:21.557Z,96.00
2017-11-03T00:34:48.030Z,96.20
2017-11-03T00:37:14.466Z,96.20
2017-11-03T00:39:40.895Z,95.90
2017-11-03T00:42:07.335Z,95.90
2017-11-03T00:44:34.318Z,96.00
2017-11-03T00:47:00.794Z,96.10
2017-11-03T00:49:27.249Z,95.80
2017-11-03T00:51:53.669Z,95.90
2017-11-03T00:54:20.173Z,96.00
2017-11-03T00:56:46.601Z,96.00
2017-11-03T00:59:13.061Z,96.10
2017-11-03T01:01:39.506Z,96.10
2017-11-03T01:04:05.930Z,96.30
2017-11-03T01:06:32.450Z,96.20
2017-11-03T01:08:58.905Z,96.30
2017-11-03T01:11:25.366Z,96.50
2017-11-03T01:13:51.856Z,96.50
2017-11-03T01:16:18.345Z,96.50
2017-11-03T01:18:44.761Z,96.70
2017-11-03T01:21:11.965Z,96.50
2017-11-03T01:23:38.382Z,96.50
2017-11-03T01:26:04.838Z,96.50
2017-11-03T01:28:31.286Z,96.70
2017-11-03T01:30:57.785Z,96.60
2017-11-03T01:33:24.226Z,96.50
2017-11-03T01:35:50.706Z,96.50
2017-11-03T01:38:17.181Z,96.50
2017-11-03T01:40:43.610Z,96.50
2017-11-03T01:43:10.842Z,96.50
2017-11-03T01:45:38.046Z,96.40
2017-11-03T01:48:04.501Z,96.40
2017-11-03T01:50:30.957Z,96.40
2017-11-03T01:52:58.143Z,96.70
2017-11-03T01:55:24.570Z,96.70
2017-11-03T01:57:51.010Z,96.70
2017-11-03T02:00:17.454Z,96.90
2017-11-03T02:02:43.947Z,96.80
2017-11-03T02:05:10.421Z,96.80
2017-11-03T02:07:36.853Z,96.90
2017-11-03T02:10:03.337Z,96.90
2017-11-03T02:12:30.582Z,97.00
2017-11-03T02:14:57.049Z,96.90
2017-11-03T02:17:23.529Z,96.80
2017-11-03T02:19:50.050Z,96.70
2017-11-03T02:22:16.531Z,96.70
2017-11-03T02:24:42.992Z,96.70
2017-11-03T02:27:09.456Z,97.00
2017-11-03T02:29:36.007Z,96.90
2017-11-03T02:32:03.237Z,97.30
2017-11-03T02:34:29.708Z,97.30
2017-11-03T02:36:56.197Z,97.40
2017-11-03T02:39:22.689Z,97.40
2017-11-03T02:41:49.862Z,97.10
2017-11-03T02:44:16.293Z,97.10
2017-11-03T02:46:42.780Z,97.50
2017-11-03T02:49:09.189Z,97.90
2017-11-03T02:51:35.646Z,98.10
2017-11-03T02:54:02.081Z,98.20
2017-11-03T02:56:29.308Z,98.10
2017-11-03T02:58:55.758Z,98.10
2017-11-03T03:01:22.249Z,98.10
2017-11-03T03:03:48.702Z,98.00
2017-11-03T03:06:15.147Z,98.10
2017-11-03T03:08:41.567Z,98.20
2017-11-03T03:11:08.004Z,98.10
2017-11-03T03:13:34.427Z,98.00
2017-11-03T03:16:00.917Z,97.70
2017-11-03T03:18:28.221Z,97.80
2017-11-03T03:20:54.688Z,97.80
2017-11-03T03:23:21.926Z,97.90
2017-11-03T03:25:48.422Z,97.90
2017-11-03T03:28:14.911Z,97.90
2017-11-03T03:30:43.158Z,97.60
2017-11-03T03:33:09.645Z,97.50
2017-11-03T03:35:36.102Z,97.30
2017-11-03T03:38:02.636Z,97.30
2017-11-03T03:40:29.129Z,97.40
2017-11-03T03:42:55.596Z,97.30
2017-11-03T03:45:22.082Z,97.30
2017-11-03T03:47:49.324Z,97.40
2017-11-03T03:50:15.834Z,97.40
2017-11-03T03:52:42.335Z,97.40
2017-11-03T03:55:09.570Z,97.70
2017-11-03T03:57:36.030Z,97.70
2017-11-03T04:00:02.543Z,97.90
2017-11-03T04:02:29.049Z,98.00
2017-11-03T04:04:55.518Z,98.00
2017-11-03T04:07:22.734Z,98.20
2017-11-03T04:09:49.947Z,98.30
2017-11-03T04:12:16.421Z,98.20
2017-11-03T04:14:42.857Z,98.40
2017-11-03T04:17:10.075Z,98.60
2017-11-03T04:19:36.522Z,98.50
2017-11-03T04:22:02.983Z,99.00
2017-11-03T04:24:30.195Z,98.20
2017-11-03T04:26:57.422Z,98.10
2017-11-03T04:29:23.894Z,98.10
2017-11-03T04:31:50.395Z,98.00
2017-11-03T04:34:16.890Z,97.80
2017-11-03T04:36:43.390Z,97.90
2017-11-03T04:39:09.897Z,97.80
2017-11-03T04:41:36.362Z,98.10
2017-11-03T04:44:02.906Z,98.40
2017-11-03T04:46:29.434Z,98.70
2017-11-03T04:48:55.900Z,98.80
2017-11-03T04:51:23.162Z,98.70
2017-11-03T04:53:50.379Z,98.80
2017-11-03T04:56:16.869Z,98.80
2017-11-03T04:58:43.349Z,98.90
2017-11-03T05:01:09.801Z,98.80
2017-11-03T05:03:37.008Z,98.60
2017-11-03T05:06:03.427Z,98.50
2017-11-03T05:08:29.890Z,98.50
2017-11-03T05:10:56.330Z,98.40
2017-11-03T05:13:22.819Z,98.40
2017-11-03T05:15:50.054Z,98.40
2017-11-03T05:18:17.274Z,98.10
2017-11-03T05:20:43.763Z,98.10
2017-11-03T05:23:10.931Z,97.60
2017-11-03T05:25:37.349Z,97.60
2017-11-03T05:28:03.785Z,97.30
2017-11-03T05:30:30.259Z,97.20
2017-11-03T05:32:56.753Z,97.30
2017-11-03T05:35:23.276Z,97.40
2017-11-03T05:37:49.847Z,97.40
2017-11-03T05:40:16.293Z,97.30
2017-11-03T05:42:42.798Z,97.20
2017-11-03T05:45:09.261Z,97.30
2017-11-03T05:47:35.845Z,97.20
2017-11-03T05:50:03.101Z,97.30
2017-11-03T05:52:29.563Z,97.30
2017-11-03T05:54:56.046Z,97.70
2017-11-03T05:57:22.558Z,97.20
2017-11-03T05:59:48.997Z,97.00
2017-11-03T06:02:15.657Z,97.20
2017-11-03T06:04:42.858Z,97.30
2017-11-03T06:07:09.292Z,97.60
2017-11-03T06:09:35.724Z,97.20
2017-11-03T06:12:02.201Z,97.10
2017-11-03T06:14:28.677Z,97.20
2017-11-03T06:16:55.126Z,97.20
2017-11-03T06:19:21.587Z,97.40
2017-11-03T06:21:48.024Z,97.30
2017-11-03T06:24:15.240Z,97.40
2017-11-03T06:26:41.674Z,97.40
2017-11-03T06:29:08.129Z,97.30
2017-11-03T06:31:35.293Z,97.60
2017-11-03T06:34:01.721Z,97.60
2017-11-03T06:36:28.161Z,97.80
2017-11-03T06:38:55.357Z,98.10
2017-11-03T06:41:21.856Z,98.10
2017-11-03T06:43:49.072Z,98.00
2017-11-03T06:46:15.552Z,98.00
2017-11-03T06:48:42.058Z,97.80
2017-11-03T06:51:08.482Z,97.70
2017-11-03T06:53:35.721Z,97.00
2017-11-03T06:56:02.180Z,97.00
2017-11-03T06:58:28.649Z,97.00
2017-11-03T07:00:55.198Z,97.00
2017-11-03T07:03:21.754Z,96.70
2017-11-03T07:05:48.243Z,96.10
2017-11-03T07:08:14.748Z,96.20
2017-11-03T07:10:41.226Z,96.30
2017-11-03T07:13:07.714Z,96.20
2017-11-03T07:15:34.186Z,95.90
2017-11-03T07:18:00.618Z,95.80
2017-11-03T07:20:27.162Z,96.10
2017-11-03T07:22:53.623Z,95.90
2017-11-03T07:25:20.073Z,95.80
2017-11-03T07:27:46.513Z,96.00
2017-11-03T07:30:12.954Z,95.80
2017-11-03T07:32:40.165Z,95.70
2017-11-03T07:35:06.590Z,95.50
2017-11-03T07:37:33.152Z,95.80
2017-11-03T07:39:59.606Z,95.50
2017-11-03T07:42:26.150Z,95.30
2017-11-03T07:44:52.587Z,94.90
2017-11-03T07:47:19.055Z,94.70
2017-11-03T07:49:45.549Z,94.70
2017-11-03T07:52:11.975Z,95.10
2017-11-03T07:54:38.432Z,94.30
2017-11-03T07:57:04.952Z,94.50
2017-11-03T07:59:31.393Z,94.10
2017-11-03T08:01:57.885Z,93.80
2017-11-03T08:04:24.323Z,94.00
2017-11-03T08:06:50.757Z,93.60
2017-11-03T08:09:17.230Z,93.30
2017-11-03T08:11:43.698Z,92.80
2017-11-03T08:14:10.149Z,93.40
2017-11-03T08:16:36.567Z,93.50
2017-11-03T08:19:03.036Z,93.40
2017-11-03T08:21:29.477Z,93.30
2017-11-03T08:23:56.051Z,93.10
2017-11-03T08:26:22.518Z,93.30
2017-11-03T08:28:49.270Z,92.80
2017-11-03T08:31:15.795Z,92.30
2017-11-03T08:33:42.336Z,92.40
2017-11-03T08:36:08.828Z,92.20
2017-11-03T08:38:35.322Z,91.90
2017-11-03T08:41:01.768Z,91.50
2017-11-03T08:43:28.207Z,91.20
2017-11-03T08:45:54.650Z,90.70
2017-11-03T08:48:21.125Z,90.60
2017-11-03T08:50:48.313Z,90.30
2017-11-03T08:53:14.773Z,90.30
2017-11-03T08:55:41.969Z,89.10
2017-11-03T08:58:08.492Z,89.00
2017-11-03T09:00:34.957Z,89.00
2017-11-03T09:03:01.457Z,89.60
2017-11-03T09:05:27.992Z,88.80
2017-11-03T09:07:54.502Z,88.50
2017-11-03T09:10:20.993Z,88.50
2017-11-03T09:12:47.475Z,88.30
2017-11-03T09:15:13.926Z,87.00
2017-11-03T09:17:40.436Z,87.60
2017-11-03T09:20:06.929Z,88.00
2017-11-03T09:22:34.194Z,83.50
2017-11-03T09:25:00.686Z,83.50
2017-11-03T09:27:27.209Z,80.00
2017-11-03T09:29:53.702Z,75.50
2017-11-03T09:32:21.003Z,59.50
2017-11-03T09:34:47.751Z,59.70
2017-11-03T09:37:14.286Z,56.20
2017-11-03T09:39:40.790Z,52.40
2017-11-03T09:42:07.322Z,46.20
2017-11-03T09:44:33.762Z,48.00
2017-11-03T09:47:00.269Z,51.60
2017-11-03T09:49:27.506Z,53.90
2017-11-03T09:51:53.974Z,53.80
2017-11-03T09:54:20.490Z,54.30
2017-11-03T09:56:46.990Z,48.70
2017-11-03T09:59:14.235Z,48.60
2017-11-03T10:01:40.698Z,48.50
2017-11-03T10:04:07.156Z,45.00
2017-11-03T10:06:33.606Z,45.90
2017-11-03T10:09:00.942Z,44.30
2017-11-03T10:11:28.201Z,44.10
2017-11-03T10:13:54.725Z,44.10
2017-11-03T10:16:21.267Z,44.20
2017-11-03T10:18:47.752Z,44.20
2017-11-03T10:21:14.272Z,48.20
2017-11-03T10:23:40.734Z,47.70
2017-11-03T10:26:07.335Z,45.90
2017-11-03T10:28:33.893Z,47.10
2017-11-03T10:31:00.361Z,44.30
2017-11-03T10:33:27.568Z,49.00
2017-11-03T10:35:54.000Z,49.00
2017-11-03T10:38:20.545Z,51.90
2017-11-03T10:40:47.078Z,52.90
2017-11-03T10:43:13.543Z,53.80
2017-11-03T10:45:40.064Z,54.80
2017-11-03T10:48:07.262Z,54.70
2017-11-03T10:50:33.806Z,54.70
2017-11-03T10:53:00.290Z,52.00
2017-11-03T10:55:26.799Z,50.00
2017-11-03T10:57:53.262Z,49.70
2017-11-03T11:00:19.821Z,47.50
2017-11-03T11:02:46.330Z,44.10
2017-11-03T11:05:13.623Z,41.20
2017-11-03T11:07:40.102Z,41.10
2017-11-03T11:10:06.618Z,40.70
2017-11-03T11:12:33.102Z,43.10
2017-11-03T11:15:00.294Z,46.50
2017-11-03T11:17:26.797Z,46.40
2017-11-03T11:19:53.306Z,48.50
2017-11-03T11:22:20.570Z,48.80
2017-11-03T11:24:47.788Z,50.50
2017-11-03T11:27:15.221Z,50.40
2017-11-03T11:29:41.739Z,50.70
2017-11-03T11:32:08.232Z,52.90
2017-11-03T11:34:35.502Z,53.50
2017-11-03T11:37:01.999Z,53.50
2017-11-03T11:39:29.277Z,55.50
2017-11-03T11:41:55.765Z,55.50
2017-11-03T11:44:22.335Z,55.50
2017-11-03T11:46:48.899Z,56.00
2017-11-03T11:49:15.428Z,57.70
2017-11-03T11:51:41.958Z,56.80
2017-11-03T11:54:09.171Z,58.50
2017-11-03T11:56:35.719Z,58.40
2017-11-03T11:59:03.101Z,58.80
2017-11-03T12:01:29.643Z,58.70
2017-11-03T12:03:56.162Z,59.40
2017-11-03T12:06:23.397Z,59.70
2017-11-03T12:08:49.957Z,59.70
2017-11-03T12:11:16.461Z,59.30
2017-11-03T12:13:43.809Z,59.20
2017-11-03T12:16:10.345Z,59.10
2017-11-03T12:18:36.965Z,58.80
2017-11-03T12:21:03.536Z,59.40
2017-11-03T12:23:30.055Z,59.00
2017-11-03T12:25:57.402Z,58.70
2017-11-03T12:28:23.957Z,58.30
2017-11-03T12:30:51.181Z,59.20
2017-11-03T12:33:17.725Z,59.20
2017-11-03T12:35:47.806Z,59.80
2017-11-03T12:38:14.422Z,59.00
2017-11-03T12:40:41.665Z,59.80
2017-11-03T12:43:08.908Z,60.00
2017-11-03T12:45:36.277Z,59.50
2017-11-03T12:48:02.782Z,59.40
2017-11-03T12:50:29.320Z,59.10
2017-11-03T12:52:56.612Z,59.30
2017-11-03T12:55:23.162Z,59.20
2017-11-03T12:57:49.709Z,58.90
2017-11-03T13:00:16.221Z,59.80
2017-11-03T13:02:42.761Z,60.00
2017-11-03T13:05:11.032Z,60.70
2017-11-03T13:07:38.492Z,60.70
2017-11-03T13:10:05.729Z,59.20
2017-11-03T13:12:32.267Z,59.30
2017-11-03T13:14:58.797Z,58.60
2017-11-03T13:17:25.382Z,61.40
2017-11-03T13:19:51.928Z,62.10
2017-11-03T13:22:18.484Z,60.10
2017-11-03T13:24:44.990Z,60.40
2017-11-03T13:27:11.535Z,59.30
2017-11-03T13:29:38.103Z,59.60
2017-11-03T13:32:04.667Z,59.40
2017-11-03T13:34:31.158Z,59.80
2017-11-03T13:36:58.419Z,59.10
2017-11-03T13:39:25.698Z,59.10
2017-11-03T13:41:52.325Z,59.10
2017-11-03T13:44:18.901Z,59.50
2017-11-03T13:46:45.402Z,59.60
2017-11-03T13:49:11.926Z,59.60
2017-11-03T13:51:38.496Z,61.70
2017-11-03T13:54:04.972Z,61.20
2017-11-03T13:56:32.231Z,60.70
2017-11-03T13:58:59.566Z,59.80
2017-11-03T14:01:27.067Z,59.80
2017-11-03T14:03:54.321Z,59.40
2017-11-03T14:06:20.858Z,59.40
2017-11-03T14:08:47.417Z,59.90
2017-11-03T14:11:13.996Z,60.20
2017-11-03T14:13:40.454Z,60.40
2017-11-03T14:16:07.642Z,60.70
2017-11-03T14:18:34.115Z,60.50
2017-11-03T14:21:00.544Z,61.00
2017-11-03T14:23:27.006Z,60.90
2017-11-03T14:25:54.175Z,61.30
2017-11-03T14:28:20.665Z,61.30
2017-11-03T14:30:47.113Z,60.40
2017-11-03T14:33:13.541Z,60.10
2017-11-03T14:35:40.001Z,60.40
2017-11-03T14:38:06.457Z,63.10
2017-11-03T14:40:43.729Z,62.60
2017-11-03T14:43:10.199Z,61.90
2017-11-03T14:45:36.806Z,62.50
2017-11-03T14:48:03.232Z,63.40
2017-11-03T14:50:29.643Z,63.50
2017-11-03T14:52:56.851Z,64.00
2017-11-03T14:55:23.297Z,63.90
2017-11-03T14:57:49.766Z,63.80
2017-11-03T15:00:16.222Z,64.10
2017-11-03T15:02:42.671Z,64.40
2017-11-03T15:05:09.125Z,64.40
2017-11-03T15:07:35.541Z,65.10
2017-11-03T15:10:01.988Z,65.10
2017-11-03T15:12:28.454Z,64.80
2017-11-03T15:14:55.628Z,66.10
2017-11-03T15:17:22.129Z,66.10
2017-11-03T15:19:49.365Z,66.70
2017-11-03T15:22:15.830Z,66.60
2017-11-03T15:24:42.381Z,67.00
2017-11-03T15:27:08.891Z,67.40
2017-11-03T15:29:35.504Z,67.80
2017-11-03T15:32:02.006Z,67.80
2017-11-03T15:34:28.464Z,67.70
2017-11-03T15:36:54.921Z,67.90
2017-11-03T15:39:21.409Z,68.70
2017-11-03T15:41:47.842Z,68.70
2017-11-03T15:44:14.310Z,69.40
2017-11-03T15:46:40.831Z,70.60
2017-11-03T15:49:07.286Z,70.50
2017-11-03T15:51:34.525Z,71.00
2017-11-03T15:54:01.021Z,70.80
2017-11-03T15:56:27.541Z,71.80
2017-11-03T15:58:54.031Z,72.50
2017-11-03T16:01:21.222Z,73.50
2017-11-03T16:03:47.710Z,73.50
2017-11-03T16:06:14.138Z,73.00
2017-11-03T16:08:40.668Z,74.10
2017-11-03T16:11:07.103Z,74.00
2017-11-03T16:13:33.550Z,74.70
2017-11-03T16:16:00.087Z,76.10
2017-11-03T16:18:26.547Z,76.70
2017-11-03T16:20:53.769Z,78.30
2017-11-03T16:23:20.193Z,78.30
2017-11-03T16:25:46.666Z,79.30
2017-11-03T16:28:13.082Z,79.80
2017-11-03T16:30:39.538Z,80.40
2017-11-03T16:33:06.766Z,81.50
2017-11-03T16:35:33.286Z,81.50
2017-11-03T16:37:59.720Z,82.00
2017-11-03T16:40:26.960Z,84.20
2017-11-03T16:42:53.441Z,84.20
2017-11-03T16:45:20.667Z,85.00
2017-11-03T16:47:47.294Z,85.00
2017-11-03T16:50:13.783Z,85.80
2017-11-03T16:52:40.250Z,86.00
2017-11-03T16:55:06.757Z,86.80
2017-11-03T16:57:33.312Z,87.40
2017-11-03T16:59:59.809Z,87.70
2017-11-03T17:02:26.355Z,88.20
2017-11-03T17:04:52.960Z,88.40
2017-11-03T17:07:20.211Z,89.00
2017-11-03T17:09:47.414Z,89.20
2017-11-03T17:12:13.914Z,89.20
2017-11-03T17:14:40.394Z,89.40
2017-11-03T17:17:06.919Z,89.90
2017-11-03T17:19:33.350Z,90.20
2017-11-03T17:21:59.833Z,90.20
2017-11-03T17:24:26.318Z,90.50
2017-11-03T17:26:53.491Z,90.60
2017-11-03T17:29:19.940Z,90.50
2017-11-03T17:31:46.398Z,90.60
2017-11-03T17:34:12.878Z,90.70
2017-11-03T17:36:39.373Z,90.90
2017-11-03T17:39:05.817Z,91.10
2017-11-03T17:41:32.354Z,91.10
2017-11-03T17:43:58.835Z,91.10
2017-11-03T17:46:25.396Z,91.10
2017-11-03T17:48:51.911Z,91.20
2017-11-03T17:51:18.390Z,91.20
2017-11-03T17:53:44.867Z,91.20
2017-11-03T17:56:12.093Z,91.70
2017-11-03T17:58:39.390Z,91.40
2017-11-03T18:01:06.596Z,91.20
2017-11-03T18:03:33.095Z,91.20
2017-11-03T18:05:59.599Z,91.20
2017-11-03T18:08:26.080Z,91.20
2017-11-03T18:10:52.678Z,91.10
2017-11-03T18:13:19.975Z,91.10
2017-11-03T18:15:46.470Z,91.10
2017-11-03T18:18:13.710Z,91.10
2017-11-03T18:20:40.222Z,91.10
2017-11-03T18:23:06.690Z,91.20
2017-11-03T18:25:33.896Z,91.10
2017-11-03T18:28:00.386Z,91.10
2017-11-03T18:30:26.958Z,91.10
2017-11-03T18:32:53.445Z,91.10
2017-11-03T18:35:19.970Z,91.00
2017-11-03T18:37:46.482Z,91.00
2017-11-03T18:40:13.006Z,91.00
2017-11-03T18:42:39.487Z,90.90
2017-11-03T18:45:05.989Z,90.90
2017-11-03T18:47:32.447Z,91.00
2017-11-03T18:49:58.946Z,91.00
2017-11-03T18:52:25.466Z,91.00
2017-11-03T18:54:51.927Z,90.90
2017-11-03T18:57:19.144Z,90.80
2017-11-03T18:59:45.678Z,90.80
2017-11-03T19:02:17.140Z,90.80
2017-11-03T19:04:43.602Z,90.80
2017-11-03T19:07:10.061Z,90.80
2017-11-03T19:09:36.701Z,91.00
2017-11-03T19:12:03.206Z,91.00
2017-11-03T19:14:29.673Z,91.10
2017-11-03T19:16:56.837Z,91.20
2017-11-03T19:19:23.333Z,91.20
2017-11-03T19:21:49.795Z,91.10
2017-11-03T19:24:16.285Z,91.10
2017-11-03T19:26:42.799Z,91.10
2017-11-03T19:29:09.242Z,91.30
2017-11-03T19:31:35.691Z,91.30
2017-11-03T19:34:02.933Z,91.30
2017-11-03T19:36:29.411Z,91.30
2017-11-03T19:38:55.854Z,91.30
2017-11-03T19:41:22.336Z,91.30
2017-11-03T19:43:48.838Z,91.20
2017-11-03T19:46:15.355Z,91.30
2017-11-03T19:48:41.914Z,91.30
2017-11-03T19:51:08.413Z,91.40
2017-11-03T19:53:35.658Z,91.50
2017-11-03T19:56:02.105Z,91.50
2017-11-03T19:58:28.629Z,91.60
2017-11-03T20:00:55.858Z,91.70
2017-11-03T20:03:22.314Z,91.70
2017-11-03T20:05:49.547Z,91.60
2017-11-03T20:08:16.021Z,91.60
2017-11-03T20:10:42.549Z,91.60
2017-11-03T20:13:09.022Z,91.60
2017-11-03T20:15:35.496Z,91.60
2017-11-03T20:18:02.341Z,91.60
2017-11-03T20:20:29.534Z,91.50
2017-11-03T20:22:55.978Z,91.60
2017-11-03T20:25:22.471Z,91.70
2017-11-03T20:27:48.922Z,91.70
2017-11-03T20:30:15.419Z,91.70
2017-11-03T20:32:42.655Z,91.80
2017-11-03T20:35:09.230Z,91.80
2017-11-03T20:37:35.694Z,91.90
2017-11-03T20:40:02.327Z,92.00
2017-11-03T20:42:29.590Z,92.10
2017-11-03T20:44:56.975Z,92.10
2017-11-03T20:47:25.997Z,92.30
2017-11-03T20:49:52.819Z,92.30
2017-11-03T20:52:20.030Z,92.40
2017-11-03T20:54:46.455Z,92.40
2017-11-03T20:57:12.935Z,92.50
2017-11-03T20:59:39.388Z,92.50
2017-11-03T21:02:05.930Z,92.60
2017-11-03T21:04:32.422Z,92.60
2017-11-03T21:06:58.898Z,92.70
2017-11-03T21:09:25.397Z,92.90
2017-11-03T21:11:51.870Z,93.00
2017-11-03T21:14:18.329Z,93.00
2017-11-03T21:16:44.828Z,92.80
2017-11-03T21:19:11.270Z,92.90
2017-11-03T21:21:38.538Z,93.10
2017-11-03T21:24:04.997Z,93.10
2017-11-03T21:26:31.466Z,93.10
2017-11-03T21:28:57.934Z,93.10
2017-11-03T21:31:24.417Z,92.80
2017-11-03T21:33:51.661Z,93.40
2017-11-03T21:36:18.143Z,93.40
2017-11-03T21:38:45.377Z,93.40
2017-11-03T21:41:11.896Z,93.40
2017-11-03T21:43:39.199Z,93.50
2017-11-03T21:46:05.652Z,93.50
2017-11-03T21:48:32.115Z,93.50
2017-11-03T21:50:58.585Z,93.50
2017-11-03T21:53:25.060Z,94.20
2017-11-03T21:55:52.307Z,93.80
2017-11-03T21:58:19.548Z,93.90
2017-11-03T22:00:46.024Z,93.90
2017-11-03T22:03:12.494Z,93.90
2017-11-03T22:05:38.983Z,94.10
2017-11-03T22:08:05.473Z,94.20
2017-11-03T22:10:31.960Z,94.10
2017-11-03T22:12:59.149Z,94.30
2017-11-03T22:15:25.593Z,94.30
2017-11-03T22:17:52.054Z,93.80
2017-11-03T22:20:18.498Z,92.90
2017-11-03T22:22:45.713Z,92.80
2017-11-03T22:25:12.281Z,92.70
2017-11-03T22:27:38.746Z,92.60
2017-11-03T22:30:05.191Z,92.30
2017-11-03T22:32:31.667Z,92.30
2017-11-03T22:34:58.120Z,92.50
2017-11-03T22:37:25.362Z,92.90
2017-11-03T22:39:51.826Z,92.90
2017-11-03T22:42:18.330Z,93.00
2017-11-03T22:44:45.607Z,93.10
2017-11-03T22:47:12.100Z,93.00
2017-11-03T22:49:38.567Z,93.00
2017-11-03T22:52:05.838Z,92.80
2017-11-03T22:54:32.358Z,92.80
2017-11-03T22:56:59.562Z,93.00
2017-11-03T22:59:26.022Z,93.00
2017-11-03T23:01:52.480Z,92.80
2017-11-03T23:04:19.668Z,92.50
2017-11-03T23:06:46.194Z,92.50
2017-11-03T23:09:12.668Z,92.90
2017-11-03T23:11:39.106Z,93.50
2017-11-03T23:14:05.602Z,94.10
2017-11-03T23:16:32.027Z,93.90
2017-11-03T23:18:58.520Z,93.70
2017-11-03T23:21:25.011Z,93.70
2017-11-03T23:23:51.476Z,93.80
2017-11-03T23:26:17.994Z,93.80
2017-11-03T23:28:44.454Z,93.80
2017-11-03T23:31:10.902Z,93.90
2017-11-03T23:33:38.097Z,94.30
2017-11-03T23:36:04.530Z,94.30
2017-11-03T23:38:32.018Z,94.10
2017-11-03T23:40:59.210Z,94.10
2017-11-03T23:43:25.664Z,94.10
2017-11-03T23:45:52.139Z,94.10
2017-11-03T23:48:18.610Z,94.00
2017-11-03T23:50:45.059Z,94.30
2017-11-03T23:53:11.534Z,94.60
2017-11-03T23:55:38.790Z,94.70
2017-11-03T23:58:05.267Z,94.60
